Gabriella — OJHP — position and weather

sailwx.info

Track history (hours):
 
Tides and Currents Weather Stations Pressure Air Temp Water Temp Dewpoint Dewpoint Depression Visibility Wind Speed Wind Dir Waves Ship Positions

Gabriella

Last reported at 2015-Mar-01 17:12 UTC. Time now 2015-Mar-01 23:30 UTC.
Position N 59°27' E 018°26'.

Length 172 m; draft 6.5 m.

Type: Ship (hazmat cat A). MMSI: 230361000.

Date/timePositionNaut miles runAvg speedWind from/ knotsBaromVisibWave heightAir tempDewpointWater temp
2015-Mar-01 17:12N 59°27' E 018°26'6 6.4
2015-Mar-01 16:14N 59°22' E 018°20'710.8
2015-Mar-01 15:33N 59°19' E 018°07'1 0.6
2015-Mar-01 14:28N 59°19' E 018°06'0 0.0
2015-Mar-01 13:31N 59°19' E 018°06'0 0.0
2015-Mar-01 12:31N 59°19' E 018°06'0 0.0
2015-Mar-01 11:31N 59°19' E 018°06'0 0.0
2015-Mar-01 10:31N 59°19' E 018°06'0 0.0
2015-Mar-01 09:31N 59°19' E 018°06'2 1.9
2015-Mar-01 08:33N 59°19' E 018°09'91 9.8
2015-Feb-28 23:15N 59°37' E 021°06'1217.6
2015-Feb-28 22:33N 59°34' E 021°29'5417.2
2015-Feb-28 19:24N 59°39' E 023°15'1517.4
2015-Feb-28 18:33N 59°44' E 023°44'1917.4
2015-Feb-28 17:29N 59°49' E 024°19'2017.4
2015-Feb-28 16:20N 59°59' E 024°54'13 1.4
2015-Feb-28 06:33N 59°52' E 024°31'1818.2
2015-Feb-28 05:33N 59°47' E 023°57'1818.3
2015-Feb-28 04:33N 59°42' E 023°22'4018.3
2015-Feb-28 02:22N 59°33' E 022°05'1518.0
2015-Feb-28 01:33N 59°33' E 021°36'9711.5
2015-Feb-27 17:07N 59°27' E 018°26'6 9.6
2015-Feb-27 16:31N 59°22' E 018°27'1010.4
2015-Feb-27 15:33N 59°19' E 018°08'1 1.0
2015-Feb-27 14:32N 59°19' E 018°06'0 0.0
2015-Feb-27 13:32N 59°19' E 018°06'0 0.0
2015-Feb-27 12:32N 59°19' E 018°06'0 0.0
2015-Feb-27 11:32N 59°19' E 018°06'0 0.0
2015-Feb-27 10:32N 59°19' E 018°06'0 0.0
2015-Feb-27 09:32N 59°19' E 018°06'2 1.9
2015-Feb-27 08:33N 59°19' E 018°10'10210.2
2015-Feb-26 22:33N 59°34' E 021°29'5417.2
2015-Feb-26 19:27N 59°39' E 023°14'1617.4
2015-Feb-26 18:32N 59°44' E 023°44'1817.4
2015-Feb-26 17:31N 59°49' E 024°18'6 0.5
2015-Feb-26 06:27N 59°52' E 024°29'1618.1
2015-Feb-26 05:33N 59°47' E 023°58'1818.2
2015-Feb-26 04:33N 59°42' E 023°23'4118.1
2015-Feb-26 02:19N 59°33' E 022°04'1317.9
2015-Feb-26 01:33N 59°33' E 021°37'9711.5
2015-Feb-25 17:07N 59°27' E 018°26'6 9.5
2015-Feb-25 16:30N 59°22' E 018°27'1010.4
2015-Feb-25 15:33N 59°19' E 018°08'1 1.0
2015-Feb-25 14:32N 59°19' E 018°06'0 0.0
2015-Feb-25 13:32N 59°19' E 018°06'0 0.0
2015-Feb-25 12:32N 59°19' E 018°06'0 0.0
2015-Feb-25 11:32N 59°19' E 018°06'0 0.0
2015-Feb-25 10:29N 59°19' E 018°06'0 0.0
2015-Feb-25 09:32N 59°19' E 018°06'2 1.8
2015-Feb-25 08:33N 59°19' E 018°09'92 9.8
2015-Feb-24 23:13N 59°37' E 021°06'1117.1
2015-Feb-24 22:33N 59°34' E 021°28'5217.3
2015-Feb-24 19:32N 59°39' E 023°11'1818.0
2015-Feb-24 18:33N 59°44' E 023°44'1818.1
2015-Feb-24 17:33N 59°49' E 024°19'1 0.1
2015-Feb-24 06:13N 59°50' E 024°19'1218.5
2015-Feb-24 05:33N 59°46' E 023°56'1918.5
2015-Feb-24 04:33N 59°42' E 023°20'3718.5
2015-Feb-24 02:33N 59°34' E 022°08'1818.3
2015-Feb-24 01:33N 59°33' E 021°32'9411.2
2015-Feb-23 17:07N 59°28' E 018°26'6 9.8
2015-Feb-23 16:30N 59°22' E 018°27'1010.7
2015-Feb-23 15:34N 59°19' E 018°08'1 0.9
2015-Feb-23 14:31N 59°19' E 018°06'0 0.0
2015-Feb-23 13:31N 59°19' E 018°06'0 0.0
2015-Feb-23 12:31N 59°19' E 018°06'0 0.0
2015-Feb-23 11:31N 59°19' E 018°06'0 0.0
2015-Feb-23 10:31N 59°19' E 018°06'0 0.0
2015-Feb-23 09:31N 59°19' E 018°06'2 2.1
2015-Feb-23 08:33N 59°19' E 018°10'9 8.4
2015-Feb-23 07:27N 59°23' E 018°27'8910.0
2015-Feb-22 22:34N 59°35' E 021°20'5616.5
2015-Feb-22 19:11N 59°40' E 023°10'1117.8
2015-Feb-22 18:33N 59°43' E 023°31'2019.3
2015-Feb-22 17:32N 59°48' E 024°09'3315.9
2015-Feb-22 15:29N 60°10' E 024°58'26 2.9
2015-Feb-22 06:16N 59°50' E 024°22'1318.0
2015-Feb-22 05:33N 59°47' E 023°58'1818.0
2015-Feb-22 04:33N 59°42' E 023°23'3718.0
2015-Feb-22 02:32N 59°34' E 022°12'1717.9
2015-Feb-22 01:34N 59°33' E 021°38'1818.0
2015-Feb-22 00:33N 59°36' E 021°03'8010.8
2015-Feb-21 17:09N 59°28' E 018°26'710.3
2015-Feb-21 16:30N 59°22' E 018°27'1010.8
2015-Feb-21 15:33N 59°19' E 018°07'1 0.8
2015-Feb-21 14:33N 59°19' E 018°06'0 0.0
2015-Feb-21 13:33N 59°19' E 018°06'0 0.0
2015-Feb-21 12:33N 59°19' E 018°06'0 0.0
2015-Feb-21 11:33N 59°19' E 018°06'0 0.0
2015-Feb-21 10:33N 59°19' E 018°06'0 0.0
2015-Feb-21 09:33N 59°19' E 018°06'2 2.1
2015-Feb-21 08:34N 59°19' E 018°10'98 9.7
2015-Feb-20 22:33N 59°35' E 021°19'5916.8
2015-Feb-20 19:04N 59°40' E 023°15'917.7
2015-Feb-20 18:33N 59°43' E 023°32'2418.9
2015-Feb-20 17:18N 59°49' E 024°17'2916.6
2015-Feb-20 15:33N 60°10' E 024°58'28 3.0
2015-Feb-20 06:11N 59°50' E 024°19'1218.2
2015-Feb-20 05:33N 59°46' E 023°57'1818.2
2015-Feb-20 04:33N 59°41' E 023°22'4017.9
2015-Feb-20 02:17N 59°33' E 022°04'1317.7
2015-Feb-20 01:33N 59°33' E 021°38'  
Track history (hours):
 
Tides and Currents Weather Stations Pressure Air Temp Water Temp Dewpoint Dewpoint Depression Visibility Wind Speed Wind Dir Waves Ship Positions

Gabriella

Last reported at 2015-Mar-01 17:12 UTC. Time now 2015-Mar-01 23:30 UTC.
Position N 59°27' E 018°26'.

Length 172 m; draft 6.5 m.

Type: Ship (hazmat cat A). MMSI: 230361000.

Date/timePositionNaut miles runAvg speedWind from/ knotsBaromVisibWave heightAir tempDewpointWater temp
2015-Mar-01 17:12N 59°27' E 018°26'6 6.4
2015-Mar-01 16:14N 59°22' E 018°20'710.8
2015-Mar-01 15:33N 59°19' E 018°07'1 0.6
2015-Mar-01 14:28N 59°19' E 018°06'0 0.0
2015-Mar-01 13:31N 59°19' E 018°06'0 0.0
2015-Mar-01 12:31N 59°19' E 018°06'0 0.0
2015-Mar-01 11:31N 59°19' E 018°06'0 0.0
2015-Mar-01 10:31N 59°19' E 018°06'0 0.0
2015-Mar-01 09:31N 59°19' E 018°06'2 1.9
2015-Mar-01 08:33N 59°19' E 018°09'91 9.8
2015-Feb-28 23:15N 59°37' E 021°06'1217.6
2015-Feb-28 22:33N 59°34' E 021°29'5417.2
2015-Feb-28 19:24N 59°39' E 023°15'1517.4
2015-Feb-28 18:33N 59°44' E 023°44'1917.4
2015-Feb-28 17:29N 59°49' E 024°19'2017.4
2015-Feb-28 16:20N 59°59' E 024°54'13 1.4
2015-Feb-28 06:33N 59°52' E 024°31'1818.2
2015-Feb-28 05:33N 59°47' E 023°57'1818.3
2015-Feb-28 04:33N 59°42' E 023°22'4018.3
2015-Feb-28 02:22N 59°33' E 022°05'1518.0
2015-Feb-28 01:33N 59°33' E 021°36'9711.5
2015-Feb-27 17:07N 59°27' E 018°26'6 9.6
2015-Feb-27 16:31N 59°22' E 018°27'1010.4
2015-Feb-27 15:33N 59°19' E 018°08'1 1.0
2015-Feb-27 14:32N 59°19' E 018°06'0 0.0
2015-Feb-27 13:32N 59°19' E 018°06'0 0.0
2015-Feb-27 12:32N 59°19' E 018°06'0 0.0
2015-Feb-27 11:32N 59°19' E 018°06'0 0.0
2015-Feb-27 10:32N 59°19' E 018°06'0 0.0
2015-Feb-27 09:32N 59°19' E 018°06'2 1.9
2015-Feb-27 08:33N 59°19' E 018°10'10210.2
2015-Feb-26 22:33N 59°34' E 021°29'5417.2
2015-Feb-26 19:27N 59°39' E 023°14'1617.4
2015-Feb-26 18:32N 59°44' E 023°44'1817.4
2015-Feb-26 17:31N 59°49' E 024°18'6 0.5
2015-Feb-26 06:27N 59°52' E 024°29'1618.1
2015-Feb-26 05:33N 59°47' E 023°58'1818.2
2015-Feb-26 04:33N 59°42' E 023°23'4118.1
2015-Feb-26 02:19N 59°33' E 022°04'1317.9
2015-Feb-26 01:33N 59°33' E 021°37'9711.5
2015-Feb-25 17:07N 59°27' E 018°26'6 9.5
2015-Feb-25 16:30N 59°22' E 018°27'1010.4
2015-Feb-25 15:33N 59°19' E 018°08'1 1.0
2015-Feb-25 14:32N 59°19' E 018°06'0 0.0
2015-Feb-25 13:32N 59°19' E 018°06'0 0.0
2015-Feb-25 12:32N 59°19' E 018°06'0 0.0
2015-Feb-25 11:32N 59°19' E 018°06'0 0.0
2015-Feb-25 10:29N 59°19' E 018°06'0 0.0
2015-Feb-25 09:32N 59°19' E 018°06'2 1.8
2015-Feb-25 08:33N 59°19' E 018°09'92 9.8
2015-Feb-24 23:13N 59°37' E 021°06'1117.1
2015-Feb-24 22:33N 59°34' E 021°28'5217.3
2015-Feb-24 19:32N 59°39' E 023°11'1818.0
2015-Feb-24 18:33N 59°44' E 023°44'1818.1
2015-Feb-24 17:33N 59°49' E 024°19'1 0.1
2015-Feb-24 06:13N 59°50' E 024°19'1218.5
2015-Feb-24 05:33N 59°46' E 023°56'1918.5
2015-Feb-24 04:33N 59°42' E 023°20'3718.5
2015-Feb-24 02:33N 59°34' E 022°08'1818.3
2015-Feb-24 01:33N 59°33' E 021°32'9411.2
2015-Feb-23 17:07N 59°28' E 018°26'6 9.8
2015-Feb-23 16:30N 59°22' E 018°27'1010.7
2015-Feb-23 15:34N 59°19' E 018°08'1 0.9
2015-Feb-23 14:31N 59°19' E 018°06'0 0.0
2015-Feb-23 13:31N 59°19' E 018°06'0 0.0
2015-Feb-23 12:31N 59°19' E 018°06'0 0.0
2015-Feb-23 11:31N 59°19' E 018°06'0 0.0
2015-Feb-23 10:31N 59°19' E 018°06'0 0.0
2015-Feb-23 09:31N 59°19' E 018°06'2 2.1
2015-Feb-23 08:33N 59°19' E 018°10'9 8.4
2015-Feb-23 07:27N 59°23' E 018°27'8910.0
2015-Feb-22 22:34N 59°35' E 021°20'5616.5
2015-Feb-22 19:11N 59°40' E 023°10'1117.8
2015-Feb-22 18:33N 59°43' E 023°31'2019.3
2015-Feb-22 17:32N 59°48' E 024°09'3315.9
2015-Feb-22 15:29N 60°10' E 024°58'26 2.9
2015-Feb-22 06:16N 59°50' E 024°22'1318.0
2015-Feb-22 05:33N 59°47' E 023°58'1818.0
2015-Feb-22 04:33N 59°42' E 023°23'3718.0
2015-Feb-22 02:32N 59°34' E 022°12'1717.9
2015-Feb-22 01:34N 59°33' E 021°38'1818.0
2015-Feb-22 00:33N 59°36' E 021°03'8010.8
2015-Feb-21 17:09N 59°28' E 018°26'710.3
2015-Feb-21 16:30N 59°22' E 018°27'1010.8
2015-Feb-21 15:33N 59°19' E 018°07'1 0.8
2015-Feb-21 14:33N 59°19' E 018°06'0 0.0
2015-Feb-21 13:33N 59°19' E 018°06'0 0.0
2015-Feb-21 12:33N 59°19' E 018°06'0 0.0
2015-Feb-21 11:33N 59°19' E 018°06'0 0.0
2015-Feb-21 10:33N 59°19' E 018°06'0 0.0
2015-Feb-21 09:33N 59°19' E 018°06'2 2.1
2015-Feb-21 08:34N 59°19' E 018°10'98 9.7
2015-Feb-20 22:33N 59°35' E 021°19'5916.8
2015-Feb-20 19:04N 59°40' E 023°15'917.7
2015-Feb-20 18:33N 59°43' E 023°32'2418.9
2015-Feb-20 17:18N 59°49' E 024°17'2916.6
2015-Feb-20 15:33N 60°10' E 024°58'28 3.0
2015-Feb-20 06:11N 59°50' E 024°19'1218.2
2015-Feb-20 05:33N 59°46' E 023°57'1818.2
2015-Feb-20 04:33N 59°41' E 023°22'4017.9
2015-Feb-20 02:17N 59°33' E 022°04'1317.7
2015-Feb-20 01:33N 59°33' E 021°38'  

Dump ship's entire track history